Time;durP1;ratioP1;P1;durP2;ratioP2;P2;SDS_P1;SDS_P2;PMS_P1;PMS_P2;Temp;Humidity;BMP_temperature;BMP_pressure;BME280_temperature;BME280_humidity;BME280_pressure;Samples;Min_cycle;Max_cycle;Signal;HPM_P1;HPM_P2
2022/01/07 00:00:27;;;;;;;15.50;7.03;;;4.10;99.90;;;;;;5064640;28;20062;-78
2022/01/07 00:02:56;;;;;;;16.10;7.38;;;4.10;99.90;;;;;;5074283;28;20044;-78
2022/01/07 00:05:23;;;;;;;15.70;6.95;;;4.10;99.90;;;;;;5066969;28;20044;-78
2022/01/07 00:07:49;;;;;;;14.57;6.93;;;4.10;99.90;;;;;;5062322;28;20127;-78
2022/01/07 00:10:17;;;;;;;13.80;6.30;;;4.10;99.90;;;;;;5077282;28;20119;-78
2022/01/07 00:12:44;;;;;;;13.82;7.10;;;4.10;99.90;;;;;;5061361;28;20043;-78
2022/01/07 00:15:10;;;;;;;14.18;7.30;;;4.10;99.90;;;;;;5067727;28;20047;-78
2022/01/07 00:17:35;;;;;;;17.73;7.20;;;4.10;99.90;;;;;;5061759;28;20047;-78
2022/01/07 00:20:03;;;;;;;11.15;6.55;;;4.10;99.90;;;;;;5072188;28;20037;-78
2022/01/07 00:22:29;;;;;;;13.50;6.78;;;4.10;99.90;;;;;;5063933;28;20398;-78
2022/01/07 00:24:54;;;;;;;14.23;7.00;;;4.10;99.90;;;;;;5068492;28;20032;-78
2022/01/07 00:27:20;;;;;;;18.75;6.68;;;4.00;99.90;;;;;;5095509;28;20040;-78
2022/01/07 00:29:45;;;;;;;14.23;6.57;;;4.10;99.90;;;;;;5068699;28;20127;-78
2022/01/07 00:32:11;;;;;;;12.95;6.68;;;4.00;99.90;;;;;;5072393;28;20051;-78
2022/01/07 00:34:37;;;;;;;10.32;6.40;;;4.00;99.90;;;;;;5065037;28;20081;-78
2022/01/07 00:37:02;;;;;;;13.77;7.05;;;4.10;99.90;;;;;;5073255;28;20043;-78
2022/01/07 00:39:28;;;;;;;14.52;6.60;;;4.10;99.90;;;;;;5074173;28;20097;-78
2022/01/07 00:41:54;;;;;;;16.83;6.95;;;4.00;99.90;;;;;;5065755;28;20119;-78
2022/01/07 00:44:19;;;;;;;13.95;6.97;;;4.00;99.90;;;;;;5072552;28;20089;-78
2022/01/07 00:46:45;;;;;;;13.85;6.65;;;4.00;99.90;;;;;;5075089;28;20136;-78
2022/01/07 00:49:12;;;;;;;14.52;6.40;;;4.00;99.90;;;;;;5081411;28;20078;-78
2022/01/07 00:51:37;;;;;;;10.80;5.00;;;4.00;99.90;;;;;;5073007;28;20064;-78
2022/01/07 00:54:03;;;;;;;15.60;6.57;;;4.10;99.90;;;;;;5078625;28;20048;-79
2022/01/07 00:56:28;;;;;;;12.88;6.10;;;4.10;99.90;;;;;;5075558;28;20044;-78
2022/01/07 00:58:54;;;;;;;17.88;6.93;;;4.00;99.90;;;;;;5076150;28;20036;-79
2022/01/07 01:01:20;;;;;;;15.30;6.45;;;4.10;99.90;;;;;;5051321;28;20032;-79
2022/01/07 01:03:45;;;;;;;11.27;5.97;;;4.00;99.90;;;;;;5071155;28;20032;-78
2022/01/07 01:06:11;;;;;;;12.60;6.88;;;4.00;99.90;;;;;;5066025;28;20037;-79
2022/01/07 01:08:36;;;;;;;14.63;5.95;;;4.00;99.90;;;;;;5053501;28;20032;-78
2022/01/07 01:11:04;;;;;;;16.10;6.35;;;3.90;99.90;;;;;;5076366;28;20044;-79
2022/01/07 01:13:31;;;;;;;9.48;5.80;;;4.00;99.90;;;;;;5090188;28;20094;-79
2022/01/07 01:15:57;;;;;;;14.48;6.57;;;3.90;99.90;;;;;;5075498;28;20396;-79
2022/01/07 01:18:22;;;;;;;12.93;6.40;;;3.90;99.90;;;;;;5094301;28;20050;-79
2022/01/07 01:20:48;;;;;;;11.13;5.45;;;4.00;99.90;;;;;;5051866;28;20455;-78
2022/01/07 01:23:13;;;;;;;15.32;6.13;;;3.90;99.90;;;;;;5089556;28;20375;-79
2022/01/07 01:25:39;;;;;;;15.40;6.68;;;3.80;99.90;;;;;;5093772;28;20100;-79
2022/01/07 01:28:05;;;;;;;13.77;6.38;;;3.80;99.90;;;;;;5072381;28;20036;-79
2022/01/07 01:30:32;;;;;;;14.48;6.03;;;3.80;99.90;;;;;;5060015;28;20729;-79
2022/01/07 01:32:59;;;;;;;12.57;6.43;;;3.70;99.90;;;;;;5074355;28;20123;-79
2022/01/07 01:35:25;;;;;;;12.75;6.03;;;3.60;99.90;;;;;;5074263;28;20035;-79
2022/01/07 01:37:51;;;;;;;13.32;6.18;;;3.60;99.90;;;;;;5066091;28;20513;-79
2022/01/07 01:40:19;;;;;;;13.90;6.63;;;3.60;99.90;;;;;;5100642;28;20115;-79
2022/01/07 01:42:46;;;;;;;16.13;7.80;;;3.70;99.90;;;;;;5076489;28;20048;-79
2022/01/07 01:45:15;;;;;;;12.88;6.25;;;3.70;99.90;;;;;;5068883;28;20036;-79
2022/01/07 01:47:41;;;;;;;14.73;6.07;;;3.70;99.90;;;;;;5073704;28;20043;-79
2022/01/07 01:50:08;;;;;;;15.25;6.75;;;3.60;99.90;;;;;;5073003;28;20056;-79
2022/01/07 01:52:34;;;;;;;15.40;7.05;;;3.60;99.90;;;;;;5079986;28;20407;-79
2022/01/07 01:55:00;;;;;;;17.63;6.95;;;3.60;99.90;;;;;;5061646;28;20052;-79
2022/01/07 01:57:26;;;;;;;15.85;7.20;;;3.50;99.90;;;;;;5075053;28;20051;-79
2022/01/07 01:59:51;;;;;;;15.25;7.30;;;3.50;99.90;;;;;;5078058;28;20036;-79
2022/01/07 02:02:17;;;;;;;13.07;6.90;;;3.50;99.90;;;;;;5070374;28;20044;-79
2022/01/07 02:04:42;;;;;;;11.43;7.13;;;3.50;99.90;;;;;;5052629;28;20495;-79
2022/01/07 02:07:11;;;;;;;14.95;7.22;;;3.50;99.90;;;;;;5071324;28;20036;-79
2022/01/07 02:09:37;;;;;;;12.05;7.43;;;3.40;99.90;;;;;;5064489;28;20070;-79
2022/01/07 02:12:08;;;;;;;12.68;7.45;;;3.40;99.90;;;;;;5066210;28;20040;-79
2022/01/07 02:14:34;;;;;;;13.07;6.63;;;3.40;99.90;;;;;;5069767;28;20072;-78
2022/01/07 02:17:10;;;;;;;10.55;7.40;;;3.50;99.90;;;;;;5063461;28;20075;-79
2022/01/07 02:19:37;;;;;;;11.25;7.03;;;3.50;99.90;;;;;;5060214;28;20041;-79
2022/01/07 02:22:04;;;;;;;10.80;7.65;;;3.40;99.90;;;;;;5069425;28;20059;-79
2022/01/07 02:24:29;;;;;;;12.63;8.25;;;3.40;99.90;;;;;;5066364;28;20063;-79
2022/01/07 02:26:55;;;;;;;14.18;8.45;;;3.40;99.90;;;;;;5068880;28;20058;-79
2022/01/07 02:29:21;;;;;;;13.82;8.75;;;3.40;99.90;;;;;;5066496;28;20036;-79
2022/01/07 02:31:47;;;;;;;13.40;7.80;;;3.40;99.90;;;;;;5075175;28;20051;-79
2022/01/07 02:34:13;;;;;;;10.55;6.63;;;3.40;99.90;;;;;;5072161;28;20056;-78
2022/01/07 02:36:38;;;;;;;11.85;8.23;;;3.40;99.90;;;;;;5073095;28;20566;-78
2022/01/07 02:39:04;;;;;;;15.30;8.75;;;3.40;99.90;;;;;;5064232;28;20044;-79
2022/01/07 02:41:31;;;;;;;13.93;8.27;;;3.40;99.90;;;;;;5070508;28;20619;-79
2022/01/07 02:43:57;;;;;;;14.55;8.45;;;3.30;99.90;;;;;;5067511;28;20036;-79
2022/01/07 02:46:23;;;;;;;14.73;7.93;;;3.30;99.90;;;;;;5075132;28;20078;-79
2022/01/07 02:48:48;;;;;;;14.63;8.48;;;3.30;99.90;;;;;;5074906;28;20074;-78
2022/01/07 02:51:14;;;;;;;13.18;8.73;;;3.40;99.90;;;;;;5072945;28;20048;-79
2022/01/07 02:53:39;;;;;;;10.68;8.43;;;3.30;99.90;;;;;;5070536;28;20101;-78
2022/01/07 02:56:05;;;;;;;13.05;8.98;;;3.30;99.90;;;;;;5056488;28;20048;-79
2022/01/07 02:58:31;;;;;;;15.30;9.93;;;3.30;99.90;;;;;;5068928;28;20123;-78
2022/01/07 03:00:56;;;;;;;12.80;8.93;;;3.30;99.90;;;;;;5070437;28;20393;-78
2022/01/07 03:03:22;;;;;;;13.98;9.23;;;3.40;99.90;;;;;;5071062;28;20415;-78
2022/01/07 03:05:48;;;;;;;14.05;9.73;;;3.30;99.90;;;;;;5050758;22;20053;-75
2022/01/07 03:08:13;;;;;;;11.88;8.57;;;3.30;99.90;;;;;;5005959;28;20682;-75
2022/01/07 03:10:39;;;;;;;13.48;9.10;;;3.30;99.90;;;;;;5002912;28;20038;-75
2022/01/07 03:13:05;;;;;;;13.27;9.20;;;3.30;99.90;;;;;;5012265;28;20049;-75
2022/01/07 03:15:33;;;;;;;10.35;8.15;;;3.40;99.90;;;;;;5007482;28;20686;-75
2022/01/07 03:17:58;;;;;;;10.75;8.70;;;3.40;99.90;;;;;;5007385;28;20033;-75
2022/01/07 03:20:24;;;;;;;11.30;8.60;;;3.40;99.90;;;;;;5014760;28;20340;-75
2022/01/07 03:22:50;;;;;;;13.10;9.15;;;3.40;99.90;;;;;;5012787;28;20048;-75
2022/01/07 03:25:17;;;;;;;13.95;9.85;;;3.40;99.90;;;;;;5011131;28;20057;-75
2022/01/07 03:27:43;;;;;;;13.63;9.05;;;3.40;99.90;;;;;;5028458;28;20076;-75
2022/01/07 03:30:11;;;;;;;11.57;9.00;;;3.40;99.90;;;;;;4996973;28;20116;-75
2022/01/07 03:32:36;;;;;;;12.52;10.00;;;3.40;99.90;;;;;;4990096;28;20041;-75
2022/01/07 03:35:03;;;;;;;13.32;9.38;;;3.40;99.90;;;;;;5012816;28;20503;-75
2022/01/07 03:37:29;;;;;;;13.07;10.07;;;3.40;99.90;;;;;;5008489;28;20095;-75
2022/01/07 03:39:55;;;;;;;13.32;9.18;;;3.40;99.90;;;;;;5007496;28;20514;-75
2022/01/07 03:42:20;;;;;;;13.32;9.85;;;3.40;99.90;;;;;;5011324;28;20107;-75
2022/01/07 03:44:46;;;;;;;15.50;10.05;;;3.50;99.90;;;;;;5008811;28;20045;-75
2022/01/07 03:47:12;;;;;;;12.98;9.45;;;3.40;99.90;;;;;;4993150;28;20042;-75
2022/01/07 03:49:37;;;;;;;12.40;9.60;;;3.40;99.90;;;;;;5007086;28;20040;-75
2022/01/07 03:52:04;;;;;;;11.68;9.77;;;3.40;99.90;;;;;;5005116;28;20045;-75
2022/01/07 03:54:29;;;;;;;10.98;8.18;;;3.50;99.90;;;;;;5002458;28;20042;-75
2022/01/07 03:56:55;;;;;;;11.50;9.63;;;3.50;99.90;;;;;;5003181;28;20049;-75
2022/01/07 03:59:20;;;;;;;15.88;10.38;;;3.40;99.90;;;;;;4990094;28;20041;-75
2022/01/07 04:01:46;;;;;;;14.40;10.18;;;3.40;99.90;;;;;;5009280;28;20045;-75
2022/01/07 04:04:12;;;;;;;12.65;9.65;;;3.40;99.90;;;;;;5010147;28;20108;-75
2022/01/07 04:06:37;;;;;;;13.52;11.43;;;3.40;99.90;;;;;;5012557;28;20103;-75
2022/01/07 04:09:03;;;;;;;16.58;10.10;;;3.40;99.90;;;;;;5011803;28;20060;-75
2022/01/07 04:11:29;;;;;;;12.23;10.65;;;3.40;99.90;;;;;;5013368;28;20088;-75
2022/01/07 04:13:54;;;;;;;11.55;10.30;;;3.50;99.90;;;;;;5006873;28;20060;-75
2022/01/07 04:16:20;;;;;;;11.98;9.60;;;3.50;99.90;;;;;;4985429;28;20436;-75
2022/01/07 04:18:46;;;;;;;17.58;10.75;;;3.50;99.90;;;;;;5012340;28;20045;-74
2022/01/07 04:21:11;;;;;;;15.48;9.40;;;3.50;99.90;;;;;;5010918;28;20128;-74
2022/01/07 04:23:37;;;;;;;16.35;9.40;;;3.60;99.90;;;;;;5009427;28;20136;-74
2022/01/07 04:26:03;;;;;;;10.65;8.25;;;3.60;99.90;;;;;;4990313;28;20049;-75
2022/01/07 04:28:28;;;;;;;13.48;9.57;;;3.60;99.90;;;;;;5010389;28;20358;-75
2022/01/07 04:30:54;;;;;;;9.90;8.35;;;3.60;99.90;;;;;;5028277;28;20041;-75
2022/01/07 04:33:26;;;;;;;10.52;8.75;;;3.60;99.90;;;;;;5011897;28;20044;-75
2022/01/07 04:35:54;;;;;;;12.18;9.73;;;3.60;99.90;;;;;;5028553;28;20026;-75
2022/01/07 04:38:20;;;;;;;12.05;8.80;;;3.40;99.90;;;;;;5003929;28;20037;-75
2022/01/07 04:40:46;;;;;;;11.68;9.20;;;3.50;99.90;;;;;;5006740;28;20046;-75
2022/01/07 04:43:12;;;;;;;9.15;7.30;;;3.50;99.90;;;;;;5005491;28;20044;-75
2022/01/07 04:45:38;;;;;;;11.63;8.68;;;3.60;99.90;;;;;;5018086;28;20046;-75
2022/01/07 04:48:04;;;;;;;11.55;9.38;;;3.60;99.90;;;;;;5012654;28;20091;-75
2022/01/07 04:50:30;;;;;;;12.63;8.52;;;3.50;99.90;;;;;;5011872;28;20517;-75
2022/01/07 04:52:56;;;;;;;14.00;10.05;;;3.60;99.90;;;;;;5010756;28;20120;-74
2022/01/07 04:55:25;;;;;;;10.35;7.47;;;3.60;99.90;;;;;;5010903;28;20581;-74
2022/01/07 04:57:51;;;;;;;11.23;9.38;;;3.70;99.90;;;;;;5006332;28;20034;-75
2022/01/07 05:00:19;;;;;;;10.68;8.70;;;3.60;99.90;;;;;;5007722;28;20097;-75
2022/01/07 05:02:45;;;;;;;12.35;8.70;;;3.60;99.90;;;;;;5011532;28;20047;-75
2022/01/07 05:05:12;;;;;;;11.82;8.68;;;3.60;99.90;;;;;;5010414;28;20344;-75
2022/01/07 05:07:37;;;;;;;11.65;9.13;;;3.60;99.90;;;;;;5006588;28;20039;-75
2022/01/07 05:10:09;;;;;;;12.02;9.15;;;3.60;99.90;;;;;;5006390;28;20042;-75
2022/01/07 05:12:35;;;;;;;13.73;9.20;;;3.60;99.90;;;;;;5003614;28;20079;-75
2022/01/07 05:15:02;;;;;;;9.93;8.43;;;3.60;99.90;;;;;;5008194;28;20068;-75
2022/01/07 05:17:27;;;;;;;11.68;8.45;;;3.60;99.90;;;;;;5022112;28;20052;-75
2022/01/07 05:19:53;;;;;;;12.77;8.60;;;3.60;99.90;;;;;;5004942;28;20487;-75
2022/01/07 05:22:18;;;;;;;9.98;8.88;;;3.60;99.90;;;;;;5007301;28;20046;-75
2022/01/07 05:24:44;;;;;;;10.45;8.40;;;3.70;99.90;;;;;;5008297;28;20037;-75
2022/01/07 05:27:10;;;;;;;10.93;8.88;;;3.70;99.90;;;;;;5005727;28;20038;-75
2022/01/07 05:29:35;;;;;;;11.55;8.48;;;3.80;99.90;;;;;;5010178;28;20069;-76
2022/01/07 05:32:04;;;;;;;12.50;8.38;;;3.70;99.90;;;;;;4997793;28;20049;-75
2022/01/07 05:34:29;;;;;;;11.10;7.93;;;3.70;99.90;;;;;;4994444;28;20084;-75
2022/01/07 05:36:55;;;;;;;8.30;7.20;;;3.70;99.90;;;;;;5010268;28;20069;-75
2022/01/07 05:39:20;;;;;;;10.68;8.27;;;3.70;99.90;;;;;;4994564;28;20115;-75
2022/01/07 05:41:46;;;;;;;9.88;8.55;;;3.70;99.90;;;;;;5009518;28;20152;-75
2022/01/07 05:44:11;;;;;;;8.38;7.22;;;3.80;99.90;;;;;;4989780;28;20107;-74
2022/01/07 05:46:37;;;;;;;8.65;7.68;;;4.00;99.90;;;;;;5013417;28;20866;-74
2022/01/07 05:49:03;;;;;;;10.32;6.80;;;3.90;99.90;;;;;;5012218;28;20422;-74
2022/01/07 05:51:28;;;;;;;8.73;7.35;;;3.90;99.90;;;;;;4991764;28;20064;-74
2022/01/07 05:53:54;;;;;;;9.20;8.20;;;3.90;99.90;;;;;;5014954;28;20053;-75
2022/01/07 05:56:19;;;;;;;9.45;7.57;;;3.90;99.90;;;;;;5010382;28;20046;-75
2022/01/07 05:58:45;;;;;;;8.70;7.82;;;3.80;99.90;;;;;;5012967;28;20052;-75
2022/01/07 06:01:12;;;;;;;10.02;8.10;;;3.80;99.90;;;;;;4997835;28;20039;-75
2022/01/07 06:03:39;;;;;;;8.52;7.53;;;3.80;99.90;;;;;;5017374;28;20142;-74
2022/01/07 06:06:04;;;;;;;11.32;8.05;;;3.80;99.90;;;;;;5009334;28;20060;-75
2022/01/07 06:08:30;;;;;;;8.65;7.75;;;3.80;99.90;;;;;;5014634;28;20046;-75
2022/01/07 06:10:55;;;;;;;8.65;7.80;;;3.80;99.90;;;;;;5013834;28;20069;-75
2022/01/07 06:13:21;;;;;;;10.88;7.53;;;3.80;99.90;;;;;;5013997;28;20040;-75
2022/01/07 06:15:46;;;;;;;8.43;7.60;;;3.80;99.90;;;;;;5010743;28;20033;-75
2022/01/07 06:18:12;;;;;;;9.52;7.65;;;3.90;99.90;;;;;;4996063;28;20056;-75
2022/01/07 06:20:37;;;;;;;9.27;7.80;;;3.80;99.90;;;;;;4996697;28;20037;-75
2022/01/07 06:23:03;;;;;;;8.80;7.80;;;3.80;99.90;;;;;;5013609;28;20046;-75
2022/01/07 06:25:28;;;;;;;7.90;7.10;;;3.80;99.90;;;;;;4996783;28;20041;-75
2022/01/07 06:27:54;;;;;;;9.80;7.47;;;3.80;99.90;;;;;;5009028;28;20056;-75
2022/01/07 06:30:20;;;;;;;10.63;7.95;;;3.80;99.90;;;;;;5006909;28;20045;-75
2022/01/07 06:32:45;;;;;;;8.57;7.75;;;3.80;99.90;;;;;;5008883;28;20537;-75
2022/01/07 06:35:11;;;;;;;8.90;7.53;;;3.80;99.90;;;;;;4994197;28;20038;-76
2022/01/07 06:37:37;;;;;;;8.30;6.80;;;3.90;99.90;;;;;;4996322;28;20407;-75
2022/01/07 06:40:05;;;;;;;10.27;7.80;;;3.80;99.90;;;;;;4995075;28;20081;-75
2022/01/07 06:42:31;;;;;;;7.85;7.05;;;3.90;99.90;;;;;;5013572;28;20063;-75
2022/01/07 06:44:57;;;;;;;10.50;8.70;;;3.80;99.90;;;;;;5011707;28;20041;-75
2022/01/07 06:47:22;;;;;;;9.25;7.93;;;3.80;99.90;;;;;;4992622;28;20116;-75
2022/01/07 06:49:48;;;;;;;11.27;8.68;;;3.80;99.90;;;;;;5013024;28;20040;-75
2022/01/07 06:52:14;;;;;;;7.43;6.72;;;3.90;99.90;;;;;;4993981;28;20041;-75
2022/01/07 06:54:39;;;;;;;8.65;7.78;;;4.00;99.90;;;;;;5004236;28;20045;-75
2022/01/07 06:57:05;;;;;;;8.65;7.72;;;3.90;99.90;;;;;;5007032;28;20049;-75
2022/01/07 06:59:31;;;;;;;9.07;8.13;;;3.90;99.90;;;;;;5012897;28;20471;-75
2022/01/07 07:01:57;;;;;;;13.90;11.55;;;3.90;99.90;;;;;;5005896;28;20046;-75
2022/01/07 07:04:23;;;;;;;18.67;15.45;;;3.90;99.90;;;;;;5013398;28;20044;-75
2022/01/07 07:06:49;;;;;;;13.82;10.52;;;3.90;99.90;;;;;;5011195;28;20597;-75
2022/01/07 07:09:17;;;;;;;12.10;10.80;;;4.00;99.90;;;;;;5013711;28;20498;-75
2022/01/07 07:11:43;;;;;;;10.80;9.70;;;4.00;99.90;;;;;;5012675;28;20052;-75
2022/01/07 07:14:10;;;;;;;7.80;7.05;;;4.00;99.90;;;;;;5016903;28;20057;-75
2022/01/07 07:16:35;;;;;;;10.30;9.30;;;4.10;99.90;;;;;;4998103;28;20715;-75
2022/01/07 07:19:01;;;;;;;13.05;11.75;;;4.10;99.90;;;;;;5014759;28;20077;-75
2022/01/07 07:21:26;;;;;;;10.52;9.52;;;4.00;99.90;;;;;;5014136;28;20042;-76
2022/01/07 07:23:52;;;;;;;10.50;9.40;;;4.00;99.90;;;;;;5010811;28;20049;-75
2022/01/07 07:26:17;;;;;;;10.45;9.40;;;4.00;99.90;;;;;;5025090;28;20671;-75
2022/01/07 07:28:43;;;;;;;11.02;9.13;;;4.00;99.90;;;;;;5006211;28;20038;-75
2022/01/07 07:31:13;;;;;;;9.07;8.07;;;4.10;99.90;;;;;;5002025;28;20036;-75
2022/01/07 07:36:30;;;;;;;9.85;8.95;;;4.10;99.90;;;;;;5009931;28;20125;-75
2022/01/07 07:39:15;;;;;;;10.40;9.38;;;4.10;99.90;;;;;;5018388;28;20051;-75
2022/01/07 07:41:42;;;;;;;10.35;9.15;;;4.10;99.90;;;;;;5007454;28;20049;-75
2022/01/07 07:44:08;;;;;;;11.30;9.30;;;4.20;99.90;;;;;;5005375;28;20510;-75
2022/01/07 07:46:35;;;;;;;10.77;9.32;;;4.10;99.90;;;;;;5008484;28;20049;-75
2022/01/07 07:49:03;;;;;;;13.90;10.15;;;4.10;99.90;;;;;;4993706;28;20068;-76
2022/01/07 07:51:30;;;;;;;10.90;9.80;;;4.10;99.90;;;;;;5010176;28;20044;-75
2022/01/07 07:53:55;;;;;;;12.85;9.65;;;4.20;99.90;;;;;;5017031;28;20077;-76
2022/01/07 07:56:21;;;;;;;12.93;10.85;;;4.20;99.90;;;;;;5013777;28;20111;-76
2022/01/07 07:58:47;;;;;;;11.82;10.73;;;4.20;99.90;;;;;;4985657;28;20379;-75
2022/01/07 08:01:13;;;;;;;17.48;11.02;;;4.20;99.90;;;;;;4997873;28;20053;-75
2022/01/07 08:03:40;;;;;;;18.65;12.68;;;4.20;99.90;;;;;;5003162;28;20041;-75
2022/01/07 08:06:06;;;;;;;12.45;11.15;;;4.20;99.90;;;;;;5013145;28;20068;-75
2022/01/07 08:08:32;;;;;;;13.95;11.00;;;4.30;99.90;;;;;;5010786;28;20045;-75
2022/01/07 08:11:01;;;;;;;11.90;10.57;;;4.20;99.90;;;;;;5013426;28;20069;-75
2022/01/07 08:15:58;;;;;;;14.27;12.75;;;4.30;99.90;;;;;;5001526;28;20041;-75
2022/01/07 08:18:29;;;;;;;13.43;12.00;;;4.40;99.90;;;;;;5009145;28;20456;-75
2022/01/07 08:21:02;;;;;;;15.68;12.70;;;4.40;99.90;;;;;;5010113;28;20029;-75
2022/01/07 08:23:27;;;;;;;16.08;13.05;;;4.40;99.90;;;;;;5005576;28;20084;-76
2022/01/07 08:25:53;;;;;;;15.05;12.55;;;4.40;99.90;;;;;;4995216;28;20450;-76
2022/01/07 08:28:22;;;;;;;15.90;13.77;;;4.40;99.90;;;;;;5003350;28;20040;-75
2022/01/07 08:31:14;;;;;;;16.88;15.00;;;4.40;99.90;;;;;;4991394;28;20033;-75
2022/01/07 08:36:28;;;;;;;23.88;15.82;;;4.50;99.90;;;;;;5009083;28;20049;-75
2022/01/07 08:38:55;;;;;;;19.45;15.63;;;4.50;99.90;;;;;;4990637;28;20037;-75
2022/01/07 08:41:24;;;;;;;16.75;13.00;;;4.50;99.90;;;;;;5002506;28;20054;-75
2022/01/07 08:43:49;;;;;;;17.10;13.57;;;4.50;99.90;;;;;;5018656;28;20041;-75
2022/01/07 08:46:15;;;;;;;20.52;15.93;;;4.60;99.90;;;;;;5005118;28;20041;-76
2022/01/07 08:48:42;;;;;;;19.27;15.10;;;4.60;99.90;;;;;;5011480;28;20042;-76
2022/01/07 08:51:08;;;;;;;19.15;14.98;;;4.70;99.90;;;;;;5012803;28;20116;-75
2022/01/07 08:53:34;;;;;;;18.23;14.38;;;4.70;99.90;;;;;;5012716;28;20108;-75
2022/01/07 08:56:00;;;;;;;18.98;15.98;;;4.70;99.90;;;;;;5012674;28;20072;-76
2022/01/07 08:58:26;;;;;;;18.85;16.02;;;4.80;99.90;;;;;;5011268;28;20498;-76
2022/01/07 09:00:52;;;;;;;21.50;16.60;;;4.80;99.90;;;;;;5011620;28;20064;-75
2022/01/07 09:03:18;;;;;;;24.23;16.70;;;4.90;99.90;;;;;;5008708;28;20049;-75
2022/01/07 09:05:44;;;;;;;21.45;16.85;;;4.90;99.90;;;;;;5015949;28;20390;-75
2022/01/07 09:08:11;;;;;;;20.40;17.15;;;4.80;99.90;;;;;;4998981;28;20045;-75
2022/01/07 09:10:37;;;;;;;18.85;16.38;;;4.90;99.90;;;;;;5007325;28;20049;-75
2022/01/07 09:13:03;;;;;;;20.55;16.90;;;4.90;99.90;;;;;;5011263;28;20033;-76
2022/01/07 09:15:28;;;;;;;25.33;17.60;;;4.90;99.90;;;;;;4997349;28;20545;-75
2022/01/07 09:17:54;;;;;;;16.67;14.82;;;4.90;99.90;;;;;;5009250;28;20059;-76
2022/01/07 09:20:23;;;;;;;18.63;15.48;;;5.00;99.90;;;;;;4998591;28;20046;-77
2022/01/07 09:22:49;;;;;;;16.00;12.65;;;5.00;99.90;;;;;;5016531;28;20100;-77
2022/01/07 09:25:16;;;;;;;19.85;15.75;;;5.20;99.90;;;;;;5005631;28;20510;-77
2022/01/07 09:27:42;;;;;;;27.58;18.10;;;5.10;99.90;;;;;;5016431;28;20087;-77
2022/01/07 09:30:12;;;;;;;23.08;17.10;;;5.10;99.90;;;;;;4988910;28;20042;-77
2022/01/07 09:32:38;;;;;;;38.83;21.60;;;5.20;99.90;;;;;;5010522;28;20132;-77
2022/01/07 09:35:05;;;;;;;29.83;19.83;;;5.20;99.90;;;;;;5016622;28;20498;-77
2022/01/07 09:37:31;;;;;;;24.60;19.13;;;5.20;99.90;;;;;;5015932;28;20136;-77
2022/01/07 09:40:00;;;;;;;23.80;19.08;;;5.20;99.90;;;;;;5011849;28;20121;-77
2022/01/07 09:42:25;;;;;;;20.35;16.10;;;5.30;99.90;;;;;;5011343;28;20446;-77
2022/01/07 09:44:51;;;;;;;23.48;18.52;;;5.40;99.90;;;;;;5008600;28;20042;-77
2022/01/07 09:47:17;;;;;;;26.15;18.98;;;5.40;99.90;;;;;;5006855;28;20038;-77
2022/01/07 09:49:43;;;;;;;29.88;21.98;;;5.50;99.90;;;;;;5008352;28;20751;-77
2022/01/07 09:52:09;;;;;;;29.30;21.58;;;5.40;99.90;;;;;;4988072;28;20129;-77
2022/01/07 09:54:38;;;;;;;23.98;18.13;;;5.40;99.90;;;;;;5012259;28;20037;-77
2022/01/07 09:57:06;;;;;;;29.98;21.52;;;5.40;99.90;;;;;;5010739;28;20045;-77
2022/01/07 09:59:36;;;;;;;19.48;13.90;;;5.40;99.90;;;;;;4991102;28;20125;-76
2022/01/07 10:02:05;;;;;;;27.65;16.27;;;5.50;99.90;;;;;;5012063;28;20387;-76
2022/01/07 10:04:35;;;;;;;21.55;17.95;;;5.50;99.90;;;;;;5008526;28;20026;-76
2022/01/07 10:07:23;;;;;;;26.23;18.65;;;5.40;99.90;;;;;;4995933;28;20065;-77
2022/01/07 10:10:26;;;;;;;25.05;18.73;;;5.50;99.90;;;;;;5005975;28;20040;-76
2022/01/07 10:13:00;;;;;;;20.70;15.20;;;5.50;99.90;;;;;;4949572;29;20077;-76
2022/01/07 10:15:30;;;;;;;15.85;13.50;;;5.50;99.90;;;;;;4989176;28;20140;-76
2022/01/07 10:18:01;;;;;;;9.52;6.32;;;5.70;99.90;;;;;;4993425;28;20045;-76
2022/01/07 10:20:31;;;;;;;8.93;8.00;;;5.80;99.90;;;;;;5021594;22;20358;-78
2022/01/07 10:23:06;;;;;;;11.10;6.85;;;5.80;99.90;;;;;;5054703;28;20048;-79
2022/01/07 10:25:37;;;;;;;14.05;5.90;;;5.60;99.90;;;;;;5048118;28;20041;-79
2022/01/07 10:28:12;;;;;;;6.28;4.53;;;5.60;99.90;;;;;;5070416;28;20036;-79
2022/01/07 10:30:55;;;;;;;8.02;5.60;;;5.60;99.90;;;;;;5051120;28;20032;-79
2022/01/07 10:33:21;;;;;;;;;;;5.60;99.90;;;;;;5043639;28;20058;-79
2022/01/07 10:35:51;;;;;;;7.32;4.07;;;5.60;99.90;;;;;;5050905;28;19994;-79
2022/01/07 10:38:27;;;;;;;8.82;4.75;;;5.70;99.90;;;;;;5053931;28;20044;-79
2022/01/07 10:40:54;;;;;;;5.70;4.45;;;5.80;99.90;;;;;;5053900;28;20048;-79
2022/01/07 10:43:27;;;;;;;7.90;4.65;;;5.90;99.90;;;;;;5050671;28;20040;-79
2022/01/07 10:45:59;;;;;;;4.50;3.60;;;5.90;99.90;;;;;;5040124;28;20033;-79
2022/01/07 10:48:35;;;;;;;3.15;2.47;;;6.00;99.90;;;;;;5040550;28;20033;-79
2022/01/07 10:51:06;;;;;;;3.10;2.38;;;5.90;99.90;;;;;;5055019;28;20398;-78
2022/01/07 10:53:32;;;;;;;3.72;2.67;;;5.80;99.90;;;;;;5046613;28;20480;-79
2022/01/07 10:56:00;;;;;;;4.18;3.15;;;5.80;99.90;;;;;;5030936;28;20380;-79
2022/01/07 10:58:26;;;;;;;4.22;3.15;;;5.70;99.90;;;;;;5028884;28;20037;-79
2022/01/07 11:00:52;;;;;;;5.45;3.72;;;5.60;99.90;;;;;;5035269;28;20388;-79
2022/01/07 11:03:17;;;;;;;4.68;4.22;;;5.60;99.90;;;;;;5053193;28;20048;-79
2022/01/07 11:05:43;;;;;;;6.65;4.20;;;5.60;99.90;;;;;;5044234;28;20036;-79
2022/01/07 11:08:08;;;;;;;6.75;5.15;;;5.80;99.90;;;;;;5049250;28;20444;-79
2022/01/07 11:10:36;;;;;;;7.05;5.22;;;6.00;99.90;;;;;;5049278;28;20386;-79
2022/01/07 11:13:03;;;;;;;7.00;5.85;;;6.00;99.90;;;;;;5047148;28;20056;-80
2022/01/07 11:15:28;;;;;;;6.85;6.15;;;5.90;99.90;;;;;;5066473;28;20044;-79
2022/01/07 11:17:54;;;;;;;8.38;6.65;;;5.90;99.90;;;;;;5030203;28;20032;-79
2022/01/07 11:20:24;;;;;;;10.10;6.60;;;5.90;99.90;;;;;;5029464;28;20053;-79
2022/01/07 11:22:50;;;;;;;8.27;6.15;;;6.00;99.90;;;;;;5029702;28;20415;-79
2022/01/07 11:25:16;;;;;;;6.80;6.10;;;5.90;99.90;;;;;;5047983;28;20044;-79
2022/01/07 11:27:54;;;;;;;8.88;6.65;;;6.00;99.90;;;;;;5053179;28;20033;-79
2022/01/07 11:30:23;;;;;;;9.27;6.63;;;5.90;99.90;;;;;;5032460;28;20055;-79
2022/01/07 11:32:52;;;;;;;12.57;7.45;;;6.00;99.90;;;;;;5052106;28;20044;-79
2022/01/07 11:35:18;;;;;;;12.50;7.30;;;5.90;99.90;;;;;;5047308;28;20694;-80
2022/01/07 11:37:46;;;;;;;9.30;7.50;;;6.00;99.90;;;;;;5038941;28;20080;-79
2022/01/07 11:40:33;;;;;;;12.80;7.95;;;5.90;99.90;;;;;;5027036;28;20041;-73
2022/01/07 11:43:24;;;;;;;11.80;8.18;;;5.90;99.90;;;;;;5053607;28;20048;-73
2022/01/07 11:45:50;;;;;;;14.55;8.50;;;5.90;99.90;;;;;;5046363;28;20080;-73
2022/01/07 11:48:24;;;;;;;10.95;8.23;;;6.00;99.90;;;;;;5051100;28;20048;-73
2022/01/07 11:50:55;;;;;;;10.50;9.40;;;6.10;99.90;;;;;;5050436;28;20836;-73
2022/01/07 11:53:28;;;;;;;14.60;9.32;;;6.20;99.90;;;;;;5039035;28;20098;-73
2022/01/07 11:56:04;;;;;;;13.85;9.70;;;6.20;99.90;;;;;;5048274;28;20051;-73
2022/01/07 11:58:51;;;;;;;14.13;9.40;;;6.20;99.90;;;;;;5045155;28;20056;-74
2022/01/07 12:01:31;;;;;;;13.77;10.70;;;6.20;99.90;;;;;;5049388;28;20041;-73
2022/01/07 12:03:59;;;;;;;13.75;10.60;;;6.00;99.90;;;;;;5031307;28;20041;-73
2022/01/07 12:06:28;;;;;;;14.50;10.13;;;6.00;99.90;;;;;;5047209;28;20040;-73
2022/01/07 12:09:00;;;;;;;17.35;10.13;;;5.90;99.90;;;;;;5051607;28;20072;-74
2022/01/07 12:11:34;;;;;;;15.10;11.20;;;5.80;99.90;;;;;;5049823;28;20029;-73
2022/01/07 12:14:02;;;;;;;15.43;12.18;;;5.80;99.90;;;;;;5048551;28;20044;-73
2022/01/07 12:16:33;;;;;;;13.15;9.63;;;5.70;99.90;;;;;;5050861;28;20692;-73
2022/01/07 12:19:18;;;;;;;16.33;10.63;;;5.80;99.90;;;;;;5048321;28;20039;-73
2022/01/07 12:21:46;;;;;;;14.15;10.52;;;5.80;99.90;;;;;;5056953;28;20114;-73
2022/01/07 12:24:14;;;;;;;15.93;11.90;;;5.80;99.90;;;;;;5047337;28;20049;-73
2022/01/07 12:26:40;;;;;;;12.07;10.73;;;5.80;99.90;;;;;;5052429;28;20041;-73
2022/01/07 12:29:14;;;;;;;16.30;11.30;;;5.90;99.90;;;;;;5035233;28;20043;-73
2022/01/07 12:31:53;;;;;;;13.05;9.82;;;5.90;99.90;;;;;;5052906;28;20520;-73
2022/01/07 12:34:26;;;;;;;13.65;9.32;;;5.90;99.90;;;;;;5048231;28;20391;-74
2022/01/07 12:37:06;;;;;;;8.82;5.50;;;6.00;99.90;;;;;;5027819;28;20040;-74
2022/01/07 12:39:41;;;;;;;12.57;5.68;;;6.00;99.90;;;;;;5038030;28;20052;-74
2022/01/07 12:42:09;;;;;;;9.98;5.53;;;6.00;99.90;;;;;;5034067;28;20040;-74
2022/01/07 12:44:38;;;;;;;9.30;5.88;;;6.00;99.90;;;;;;5048914;28;20127;-74
2022/01/07 12:47:05;;;;;;;9.48;3.97;;;5.90;99.90;;;;;;5067395;28;20051;-74
2022/01/07 12:49:39;;;;;;;9.98;4.50;;;5.90;99.90;;;;;;5052494;28;20071;-74
2022/01/07 12:52:16;;;;;;;8.82;4.10;;;5.80;99.90;;;;;;5043590;28;20386;-74
2022/01/07 12:54:55;;;;;;;10.85;4.72;;;5.80;99.90;;;;;;5036003;28;20049;-73